WetterOnline ( https://www.wetteronline.de )

Wetter aktuell Meddersheim

Aktuelles Wetter: Geisenheim (110m)

6-stündlich | Neueste Meldungen
Ortszeit Temperatur Wetter
Fr, 24.05. 2:00 12.0° C bewölkt
Do, 23.05. 20:00 20.2° C leicht bewölkt
Do, 23.05. 14:00 19.9° C leicht bewölkt
Do, 23.05. 8:00 9.9° C wolkig
Do, 23.05. 2:00 9.1° C wolkig
Mi, 22.05. 20:00 17.4° C wolkenlos
Mi, 22.05. 14:00 14.5° C leicht bewölkt
Mi, 22.05. 8:00 11.7° C bewölkt
Ortszeit Temperatur Wetter
Fr, 24.05. 7:00 11.4° C bedeckt
Fr, 24.05. 6:50 11.4° C bedeckt
Fr, 24.05. 6:40 11.0° C bedeckt
Fr, 24.05. 6:30 10.9° C bedeckt
Fr, 24.05. 6:20 10.9° C bedeckt
Fr, 24.05. 6:10 10.7° C bedeckt
Fr, 24.05. 6:00 10.7° C bedeckt
Fr, 24.05. 5:30 11.1° C bedeckt
Fr, 24.05. 5:00 11.4° C bedeckt
Fr, 24.05. 4:30 11.8° C wolkig
Fr, 24.05. 4:00 11.4° C wolkig
Ortszeit Relative Feuchte Sichtweite
Fr, 24.05. 2:00 81% 30 km
Do, 23.05. 20:00 42% 40 km
Do, 23.05. 14:00 39% 30 km
Do, 23.05. 8:00 80% 22 km
Do, 23.05. 2:00 87% 30 km
Mi, 22.05. 20:00 49% 45 km
Mi, 22.05. 14:00 59% 25 km
Mi, 22.05. 8:00 83% 17 km
Ortszeit Relative Feuchte Sichtweite
Fr, 24.05. 7:00 85% 35 km
Fr, 24.05. 6:50 85% -
Fr, 24.05. 6:40 86% -
Fr, 24.05. 6:30 86% 28 km
Fr, 24.05. 6:20 86% -
Fr, 24.05. 6:10 86% -
Fr, 24.05. 6:00 86% 25 km
Fr, 24.05. 5:30 86% 29 km
Fr, 24.05. 5:00 83% 30 km
Fr, 24.05. 4:30 83% 30 km
Fr, 24.05. 4:00 87% 28 km
Ortszeit Niederschlagsmenge Niederschlagsart
Fr, 24.05. 2:00 0.0 l/m2 in 6 Std. -
Do, 23.05. 20:00 0.0 l/m2 in 12 Std. -
Do, 23.05. 14:00 0.0 l/m2 in 6 Std. -
Do, 23.05. 8:00 0.0 l/m2 in 12 Std. -
Do, 23.05. 2:00 0.0 l/m2 in 6 Std. -
Mi, 22.05. 20:00 0.1 l/m2 in 12 Std. -
Mi, 22.05. 14:00 0.1 l/m2 in 6 Std. Sprühregen
Mi, 22.05. 8:00 0.0 l/m2 in 12 Std. -
Ortszeit Niederschlagsmenge Niederschlagsart
Fr, 24.05. 7:00 0.0 l/m2 in 1 Std. -
Fr, 24.05. 6:50 keine Meldung -
Fr, 24.05. 6:40 keine Meldung -
Fr, 24.05. 6:30 0.0 l/m2 in 1 Std. -
Fr, 24.05. 6:20 keine Meldung -
Fr, 24.05. 6:10 keine Meldung -
Fr, 24.05. 6:00 0.0 l/m2 in 1 Std. -
Fr, 24.05. 5:30 0.0 l/m2 in 1 Std. -
Fr, 24.05. 5:00 0.0 l/m2 in 1 Std. -
Fr, 24.05. 4:30 0.0 l/m2 in 1 Std. -
Fr, 24.05. 4:00 0.0 l/m2 in 1 Std. -
Ortszeit Stärke Spitze Richtung
km/h Bft. km/h Grad Sektor
Fr, 24.05. 2:00 4 1 14 300° NW
Do, 23.05. 20:00 7 2 19 150° SO
Do, 23.05. 14:00 7 2 18 170° S
Do, 23.05. 8:00 0 0 7 - -
Do, 23.05. 2:00 4 1 14 320° NW
Mi, 22.05. 20:00 4 1 32 320° NW
Mi, 22.05. 14:00 14 3 36 330° NW
Mi, 22.05. 8:00 9 2 28 320° NW
Ortszeit Stärke Spitze Richtung
km/h Bft. km/h Grad Sektor
Fr, 24.05. 7:00 0 0 7 - -
Fr, 24.05. 6:50 0 0 - 300° NW
Fr, 24.05. 6:40 4 1 - 290° W
Fr, 24.05. 6:30 2 1 6 230° SW
Fr, 24.05. 6:20 2 1 - 230° SW
Fr, 24.05. 6:10 4 1 - 210° SW
Fr, 24.05. 6:00 4 1 7 220° SW
Fr, 24.05. 5:30 4 1 7 240° SW
Fr, 24.05. 5:00 4 1 7 290° W
Fr, 24.05. 4:30 4 1 7 290° W
Fr, 24.05. 4:00 4 1 7 270° W
Ortszeit Untergrenze Bedeckung Gattung
total tief tief mittel hoch
Fr, 24.05. 2:00 2100 m 7/8 7/8 - - -
Do, 23.05. 20:00 9000 m 8/8 0/8 - - -
Do, 23.05. 14:00 10500 m 7/8 0/8 - - -
Do, 23.05. 8:00 9000 m 7/8 0/8 - - -
Do, 23.05. 2:00 9000 m 8/8 0/8 - - -
Mi, 22.05. 20:00 - 0/8 0/8 - - -
Mi, 22.05. 14:00 930 m 4/8 4/8 - - -
Mi, 22.05. 8:00 420 m 7/8 7/8 - - -
Ortszeit Bedeckungsgrad in Achtel und Wolkenuntergrenze
Fr, 24.05. 7:00 8(3900m) 8(4800m) 8(5700m)
Fr, 24.05. 6:50 8(3900m) 8(4800m) 8(5700m)
Fr, 24.05. 6:40 8(3900m) 8(5700m)
Fr, 24.05. 6:30 8(3900m) 8(5400m) 8(6000m)
Fr, 24.05. 6:20 8(3900m) 8(5400m) 8(6000m)
Fr, 24.05. 6:10 8(3900m) 8(6000m)
Fr, 24.05. 6:00 8(3900m) 8(6300m)
Fr, 24.05. 5:30 8(3900m) 8(5700m) 8(6300m)
Fr, 24.05. 5:00 4(3600m) 8(3900m) 8(6000m)
Fr, 24.05. 4:30 2(2100m) 8(3300m) 8(6000m)
Fr, 24.05. 4:00 1(2100m) 8(3600m) 8(5700m)
Ortszeit Luftdruck NN (hPa) Tendenz (hPa in 3 Std.)
Fr, 24.05. 2:00 1017 - 0,3
Do, 23.05. 20:00 1017 - 0,8
Do, 23.05. 14:00 1019 - 1,4
Do, 23.05. 8:00 1021 + 0,2
Do, 23.05. 2:00 1021 + 0,4
Mi, 22.05. 20:00 1020 - 0,2
Mi, 22.05. 14:00 1020 + 0,1
Mi, 22.05. 8:00 1019 + 1,5
Ortszeit Luftdruck NN (hPa) Tendenz (hPa in 3 Std.)
Fr, 24.05. 7:00 1016 - 0,1
Fr, 24.05. 6:50 1016 keine Meldung
Fr, 24.05. 6:40 1016 keine Meldung
Fr, 24.05. 6:30 1016 - 0,2
Fr, 24.05. 6:20 1016 keine Meldung
Fr, 24.05. 6:10 1016 keine Meldung
Fr, 24.05. 6:00 1016 - 0,3
Fr, 24.05. 5:30 1016 - 0,6
Fr, 24.05. 5:00 1016 - 0,7
Fr, 24.05. 4:30 1016 - 0,8
Fr, 24.05. 4:00 1016 - 0,6
Ortszeit Schneehöhe (cm)
Fr, 24.05. 2:00 -
Do, 23.05. 20:00 -
Do, 23.05. 14:00 -
Do, 23.05. 8:00 -
Do, 23.05. 2:00 -
Mi, 22.05. 20:00 -
Mi, 22.05. 14:00 -
Mi, 22.05. 8:00 -
Ortszeit Schneehöhe (cm)
Fr, 24.05. 7:00 -
Fr, 24.05. 6:50 -
Fr, 24.05. 6:40 -
Fr, 24.05. 6:30 -
Fr, 24.05. 6:20 -
Fr, 24.05. 6:10 -
Fr, 24.05. 6:00 -
Fr, 24.05. 5:30 -
Fr, 24.05. 5:00 -
Fr, 24.05. 4:30 -
Fr, 24.05. 4:00 -
Link zu dieser Seite / Seite empfehlen

Das Wetter in ...